Time;durP1;ratioP1;P1;durP2;ratioP2;P2;SDS_P1;SDS_P2;PMS_P1;PMS_P2;Temp;Humidity;BMP_temperature;BMP_pressure;BME280_temperature;BME280_humidity;BME280_pressure;Samples;Min_cycle;Max_cycle;Signal;HPM_P1;HPM_P2
2023/10/08 00:01:21;;;;;;;10.50;5.38;;;;;;;;;;6263829;27;20049;-71
2023/10/08 00:04:23;;;;;;;12.02;5.40;;;;;;;;;;6260043;27;20112;-71
2023/10/08 00:07:27;;;;;;;8.90;4.82;;;;;;;;;;6236864;27;20041;-71
2023/10/08 00:10:34;;;;;;;9.15;5.07;;;;;;;;;;6291519;27;20046;-71
2023/10/08 00:13:39;;;;;;;7.60;5.18;;;;;;;;;;6273121;27;20863;-71
2023/10/08 00:16:41;;;;;;;8.00;5.45;;;;;;;;;;6247726;28;20045;-71
2023/10/08 00:19:44;;;;;;;9.98;4.88;;;;;;;;;;6263210;27;20049;-71
2023/10/08 00:22:47;;;;;;;9.50;6.65;;;;;;;;;;6310973;27;20533;-72
2023/10/08 00:25:50;;;;;;;9.45;5.40;;;;;;;;;;6269133;27;20045;-71
2023/10/08 00:28:54;;;;;;;9.27;5.13;;;;;;;;;;6277476;27;20045;-74
2023/10/08 00:31:56;;;;;;;7.72;4.80;;;;;;;;;;6257424;28;20600;-71
2023/10/08 00:34:59;;;;;;;8.07;5.90;;;;;;;;;;6254674;27;20586;-72
2023/10/08 00:38:03;;;;;;;7.93;5.28;;;;;;;;;;6258577;27;20045;-71
2023/10/08 00:41:06;;;;;;;7.20;4.13;;;;;;;;;;6235280;27;20063;-71
2023/10/08 00:44:12;;;;;;;8.68;5.18;;;;;;;;;;6224153;27;20052;-71
2023/10/08 00:47:16;;;;;;;9.10;4.35;;;;;;;;;;6225952;27;20451;-71
2023/10/08 00:50:21;;;;;;;9.30;4.70;;;;;;;;;;6257686;27;20904;-72
2023/10/08 00:53:23;;;;;;;8.48;5.28;;;;;;;;;;6257423;28;20141;-72
2023/10/08 00:56:44;;;;;;;7.78;4.97;;;;;;;;;;6257033;28;20045;-71
2023/10/08 00:59:52;;;;;;;7.30;3.95;;;;;;;;;;6294009;27;20716;-71
2023/10/08 01:03:00;;;;;;;7.72;3.63;;;;;;;;;;6252727;28;20639;-71
2023/10/08 01:06:09;;;;;;;8.60;5.18;;;;;;;;;;6284369;27;20076;-71
2023/10/08 01:09:18;;;;;;;7.30;4.95;;;;;;;;;;6327311;27;20048;-72
2023/10/08 01:15:29;;;;;;;6.93;4.32;;;;;;;;;;6248964;27;20053;-71
2023/10/08 01:18:34;;;;;;;7.47;4.00;;;;;;;;;;6244723;27;20091;-71
2023/10/08 01:21:39;;;;;;;7.80;4.82;;;;;;;;;;6238210;27;20660;-71
2023/10/08 01:24:41;;;;;;;8.30;4.32;;;;;;;;;;6270707;27;20047;-71
2023/10/08 01:27:44;;;;;;;8.52;4.32;;;;;;;;;;6257462;27;20068;-72
2023/10/08 01:30:47;;;;;;;10.30;4.82;;;;;;;;;;6250126;27;20049;-71
2023/10/08 01:33:56;;;;;;;7.35;4.28;;;;;;;;;;6311155;27;20039;-71
2023/10/08 01:37:03;;;;;;;6.47;4.18;;;;;;;;;;6258149;27;20033;-71
2023/10/08 01:40:06;;;;;;;7.20;4.25;;;;;;;;;;6313252;27;20041;-71
2023/10/08 01:43:09;;;;;;;10.45;4.68;;;;;;;;;;6265278;27;20050;-70
2023/10/08 01:46:12;;;;;;;9.77;4.40;;;;;;;;;;6242085;27;20127;-70
2023/10/08 01:49:15;;;;;;;9.05;4.03;;;;;;;;;;6241834;28;20042;-72
2023/10/08 01:52:23;;;;;;;8.70;4.88;;;;;;;;;;6255149;27;20045;-71
2023/10/08 01:55:25;;;;;;;7.25;4.25;;;;;;;;;;6255708;27;20076;-71
2023/10/08 01:58:27;;;;;;;7.18;4.43;;;;;;;;;;6254686;27;20041;-71
2023/10/08 02:01:29;;;;;;;6.85;5.72;;;;;;;;;;6249675;27;20044;-71
2023/10/08 02:04:35;;;;;;;6.68;3.88;;;;;;;;;;6244103;27;20061;-72
2023/10/08 02:07:37;;;;;;;8.25;4.32;;;;;;;;;;6324269;27;20226;-71
2023/10/08 02:10:41;;;;;;;10.30;5.80;;;;;;;;;;6266730;27;20041;-70
2023/10/08 02:13:46;;;;;;;7.32;5.18;;;;;;;;;;6278265;27;20039;-75
2023/10/08 02:16:49;;;;;;;8.88;4.60;;;;;;;;;;6256172;28;20567;-71
2023/10/08 02:19:51;;;;;;;8.45;4.30;;;;;;;;;;6234242;27;20186;-72
2023/10/08 02:22:54;;;;;;;7.78;4.65;;;;;;;;;;6258106;27;20052;-73
2023/10/08 02:25:56;;;;;;;9.90;5.00;;;;;;;;;;6249506;27;20052;-72
2023/10/08 02:28:59;;;;;;;8.18;4.07;;;;;;;;;;6257457;27;20534;-74
2023/10/08 02:32:01;;;;;;;10.43;5.15;;;;;;;;;;6250572;27;20052;-72
2023/10/08 02:35:05;;;;;;;6.35;3.75;;;;;;;;;;6254749;27;20069;-72
2023/10/08 02:38:07;;;;;;;10.63;4.20;;;;;;;;;;6239259;27;20221;-73
2023/10/08 02:41:10;;;;;;;6.45;3.97;;;;;;;;;;6245094;27;20713;-71
2023/10/08 02:44:13;;;;;;;7.47;5.13;;;;;;;;;;6262992;27;20508;-72
2023/10/08 02:47:20;;;;;;;8.75;4.18;;;;;;;;;;6244888;27;20077;-72
2023/10/08 02:50:27;;;;;;;6.95;3.97;;;;;;;;;;6264109;27;20048;-72
2023/10/08 02:53:31;;;;;;;8.00;4.93;;;;;;;;;;6261404;27;20051;-72
2023/10/08 02:56:33;;;;;;;7.28;3.42;;;;;;;;;;6241391;28;20042;-72
2023/10/08 02:59:44;;;;;;;8.93;4.18;;;;;;;;;;6252508;27;20053;-72
2023/10/08 03:02:48;;;;;;;7.05;4.47;;;;;;;;;;6242311;28;20099;-72
2023/10/08 03:05:52;;;;;;;6.68;3.22;;;;;;;;;;6269747;27;20056;-72
2023/10/08 03:08:54;;;;;;;7.15;5.05;;;;;;;;;;6291526;27;20043;-72
2023/10/08 03:11:58;;;;;;;7.13;5.20;;;;;;;;;;6248668;27;21326;-70
2023/10/08 03:18:36;;;;;;;6.40;3.70;;;;;;;;;;6241564;27;20104;-73
2023/10/08 03:24:41;;;;;;;7.57;5.03;;;;;;;;;;6260623;27;20053;-70
2023/10/08 03:27:44;;;;;;;7.22;3.55;;;;;;;;;;6256031;27;20559;-72
2023/10/08 03:30:55;;;;;;;6.68;3.95;;;;;;;;;;6271878;27;20661;-72
2023/10/08 03:33:57;;;;;;;7.43;5.47;;;;;;;;;;6256556;27;20052;-72
2023/10/08 03:37:05;;;;;;;6.63;3.95;;;;;;;;;;6259760;27;20041;-72
2023/10/08 03:40:42;;;;;;;6.88;4.18;;;;;;;;;;6252228;27;20045;-72
2023/10/08 03:44:01;;;;;;;8.38;4.55;;;;;;;;;;6274413;27;20439;-72
2023/10/08 03:47:10;;;;;;;8.88;4.75;;;;;;;;;;6326948;27;20149;-72
2023/10/08 03:50:17;;;;;;;10.23;4.63;;;;;;;;;;6290003;27;20073;-72
2023/10/08 03:53:22;;;;;;;6.50;4.18;;;;;;;;;;6276614;27;20178;-72
2023/10/08 03:56:31;;;;;;;10.15;5.05;;;;;;;;;;6255455;27;20559;-72
2023/10/08 03:59:34;;;;;;;8.40;5.30;;;;;;;;;;6258309;28;20049;-73
2023/10/08 04:02:40;;;;;;;9.52;5.18;;;;;;;;;;6257338;27;20049;-73
2023/10/08 04:06:14;;;;;;;11.05;5.80;;;;;;;;;;6276089;27;20162;-71
2023/10/08 04:12:22;;;;;;;;;;;;;;;;;;6272833;27;20056;-69
2023/10/08 04:15:24;;;;;;;7.78;4.95;;;;;;;;;;6260644;27;19925;-69
2023/10/08 04:18:26;;;;;;;9.45;3.97;;;;;;;;;;6254759;27;20095;-69
2023/10/08 04:21:29;;;;;;;7.93;5.63;;;;;;;;;;6259375;27;20048;-69
2023/10/08 04:24:34;;;;;;;9.20;5.50;;;;;;;;;;6295087;27;20051;-69
2023/10/08 04:27:37;;;;;;;7.85;4.65;;;;;;;;;;6256519;27;20037;-69
2023/10/08 04:30:41;;;;;;;11.65;5.60;;;;;;;;;;6293216;27;20053;-67
2023/10/08 04:33:44;;;;;;;9.65;5.82;;;;;;;;;;6256008;27;20122;-65
2023/10/08 04:36:46;;;;;;;8.93;5.13;;;;;;;;;;6255049;27;20045;-65
2023/10/08 04:39:58;;;;;;;8.80;5.38;;;;;;;;;;6270550;27;20081;-65
2023/10/08 04:43:03;;;;;;;14.02;5.35;;;;;;;;;;6307749;27;20901;-64
2023/10/08 04:46:06;;;;;;;10.90;6.80;;;;;;;;;;6275174;27;20440;-64
2023/10/08 04:49:17;;;;;;;12.80;5.18;;;;;;;;;;6285597;27;20050;-64
2023/10/08 04:52:20;;;;;;;10.52;5.15;;;;;;;;;;6257884;27;20165;-64
2023/10/08 04:55:28;;;;;;;10.23;5.10;;;;;;;;;;6320000;27;20047;-64
2023/10/08 04:58:36;;;;;;;14.00;5.82;;;;;;;;;;6261839;27;20090;-65
2023/10/08 05:01:47;;;;;;;7.72;6.18;;;;;;;;;;6278184;27;20432;-64
2023/10/08 05:08:25;;;;;;;12.20;5.75;;;;;;;;;;6277620;27;20162;-64
2023/10/08 05:14:56;;;;;;;9.93;5.07;;;;;;;;;;6261714;27;20081;-64
2023/10/08 05:18:08;;;;;;;15.77;5.75;;;;;;;;;;6255189;27;20105;-64
2023/10/08 05:21:25;;;;;;;15.88;6.25;;;;;;;;;;6303163;27;20053;-64
2023/10/08 05:24:37;;;;;;;11.48;5.22;;;;;;;;;;6260615;27;20543;-64
2023/10/08 05:34:18;;;;;;;8.95;6.32;;;;;;;;;;6284835;27;20048;-64
2023/10/08 05:37:32;;;;;;;8.70;5.55;;;;;;;;;;6255532;27;20527;-65
2023/10/08 05:50:55;;;;;;;16.55;9.73;;;;;;;;;;6270273;27;20101;-65
2023/10/08 05:53:57;;;;;;;20.15;10.50;;;;;;;;;;6250246;27;20049;-66
2023/10/08 06:03:35;;;;;;;13.30;4.80;;;;;;;;;;6256988;27;20040;-66
2023/10/08 06:06:37;;;;;;;9.80;5.53;;;;;;;;;;6263730;27;20046;-65
2023/10/08 06:09:40;;;;;;;6.50;3.85;;;;;;;;;;6257310;27;20648;-64
2023/10/08 06:12:49;;;;;;;11.70;5.38;;;;;;;;;;6250357;27;20211;-70
2023/10/08 06:18:57;;;;;;;9.35;5.10;;;;;;;;;;6271565;27;20049;-70
2023/10/08 06:22:04;;;;;;;7.10;4.28;;;;;;;;;;6245121;27;20045;-70
2023/10/08 06:25:23;;;;;;;11.98;4.25;;;;;;;;;;6257478;27;20037;-69
2023/10/08 06:28:26;;;;;;;8.60;5.05;;;;;;;;;;6273249;27;20041;-66
2023/10/08 06:31:31;;;;;;;11.60;4.43;;;;;;;;;;6284488;27;20056;-63
2023/10/08 06:34:33;;;;;;;11.07;4.57;;;;;;;;;;6274176;27;20053;-64
2023/10/08 06:37:35;;;;;;;9.98;5.50;;;;;;;;;;6257981;27;20049;-62
2023/10/08 06:43:49;;;;;;;7.55;3.97;;;;;;;;;;6277923;27;20045;-66
2023/10/08 06:46:58;;;;;;;10.55;4.43;;;;;;;;;;6251111;27;20052;-62
2023/10/08 06:50:04;;;;;;;8.85;4.43;;;;;;;;;;6253146;27;20150;-63
2023/10/08 06:53:07;;;;;;;9.52;4.72;;;;;;;;;;6260560;27;20048;-64
2023/10/08 06:56:12;;;;;;;8.57;4.03;;;;;;;;;;6256309;27;20787;-68
2023/10/08 06:59:16;;;;;;;7.45;4.38;;;;;;;;;;6254098;28;20049;-66
2023/10/08 07:02:18;;;;;;;10.35;4.60;;;;;;;;;;6260791;27;20049;-65
2023/10/08 07:05:22;;;;;;;8.50;4.93;;;;;;;;;;6282818;27;20048;-63
2023/10/08 07:08:26;;;;;;;8.57;4.45;;;;;;;;;;6261341;27;20052;-65
2023/10/08 07:11:29;;;;;;;8.23;4.60;;;;;;;;;;6259807;27;20045;-64
2023/10/08 07:14:31;;;;;;;8.55;4.57;;;;;;;;;;6259878;27;20053;-64
2023/10/08 07:17:40;;;;;;;9.18;5.07;;;;;;;;;;6259870;27;20045;-64
2023/10/08 07:20:45;;;;;;;7.25;3.85;;;;;;;;;;6262447;27;20717;-64
2023/10/08 07:23:56;;;;;;;;;;;;;;;;;;6290697;27;20125;-63
2023/10/08 07:26:58;;;;;;;15.20;5.28;;;;;;;;;;6267693;27;19962;-64
2023/10/08 07:30:10;;;;;;;8.23;4.55;;;;;;;;;;6258581;27;20045;-64
2023/10/08 07:33:18;;;;;;;14.65;4.05;;;;;;;;;;6258529;27;20894;-64
2023/10/08 07:36:20;;;;;;;6.97;4.60;;;;;;;;;;6253502;27;20057;-64
2023/10/08 07:40:08;;;;;;;9.43;4.60;;;;;;;;;;6261822;27;20053;-66
2023/10/08 07:42:51;;;;;;;14.63;5.70;;;;;;;;;;6252028;27;20545;-64
2023/10/08 07:45:54;;;;;;;8.20;3.63;;;;;;;;;;6269211;27;20073;-68
2023/10/08 07:48:58;;;;;;;9.45;4.75;;;;;;;;;;6273578;27;20049;-69
2023/10/08 07:52:00;;;;;;;10.68;3.05;;;;;;;;;;6255079;27;20056;-67
2023/10/08 07:55:02;;;;;;;9.07;4.45;;;;;;;;;;6287999;27;20054;-67
2023/10/08 07:58:09;;;;;;;7.07;3.50;;;;;;;;;;6267194;27;20037;-66
2023/10/08 08:01:14;;;;;;;9.18;3.42;;;;;;;;;;6256436;27;20703;-69
2023/10/08 08:04:22;;;;;;;10.75;3.35;;;;;;;;;;6252184;27;20105;-64
2023/10/08 08:07:25;;;;;;;6.70;3.80;;;;;;;;;;6248237;27;20176;-65
2023/10/08 08:10:29;;;;;;;9.15;4.38;;;;;;;;;;6270543;27;20053;-64
2023/10/08 08:13:33;;;;;;;7.97;3.05;;;;;;;;;;6263444;27;20050;-64
2023/10/08 08:16:37;;;;;;;7.53;3.00;;;;;;;;;;6250212;27;20054;-64
2023/10/08 08:19:49;;;;;;;9.27;4.30;;;;;;;;;;6252674;27;20041;-64
2023/10/08 08:22:54;;;;;;;9.30;4.13;;;;;;;;;;6249920;27;20055;-64
2023/10/08 08:26:13;;;;;;;9.77;4.07;;;;;;;;;;6255929;27;20519;-63
2023/10/08 08:29:16;;;;;;;7.00;3.08;;;;;;;;;;6253394;27;20045;-65
2023/10/08 08:32:21;;;;;;;7.72;3.92;;;;;;;;;;6255111;27;20057;-64
2023/10/08 08:35:24;;;;;;;10.15;4.28;;;;;;;;;;6266163;27;20086;-65
2023/10/08 08:38:29;;;;;;;9.60;3.42;;;;;;;;;;6267134;27;20048;-64
2023/10/08 08:41:35;;;;;;;7.85;3.83;;;;;;;;;;6243009;27;20180;-64
2023/10/08 08:44:39;;;;;;;7.43;2.95;;;;;;;;;;6244940;27;20048;-64
2023/10/08 08:47:41;;;;;;;8.20;3.25;;;;;;;;;;6246270;27;20117;-63
2023/10/08 08:50:44;;;;;;;10.13;4.50;;;;;;;;;;6255120;27;20042;-64
2023/10/08 08:53:46;;;;;;;7.78;3.97;;;;;;;;;;6245539;28;20057;-64
2023/10/08 08:56:48;;;;;;;9.50;4.13;;;;;;;;;;6304064;27;20043;-65
2023/10/08 08:59:53;;;;;;;6.10;3.00;;;;;;;;;;6330033;27;20052;-64
2023/10/08 09:02:56;;;;;;;7.43;3.63;;;;;;;;;;6270924;27;20057;-64
2023/10/08 09:05:59;;;;;;;7.45;3.67;;;;;;;;;;6344136;27;20050;-64
2023/10/08 09:12:23;;;;;;;9.77;3.60;;;;;;;;;;6296743;27;20533;-64
2023/10/08 09:15:26;;;;;;;10.30;3.25;;;;;;;;;;6256976;27;20539;-65
2023/10/08 09:18:28;;;;;;;8.50;3.88;;;;;;;;;;6271114;27;20511;-64
2023/10/08 09:21:30;;;;;;;12.57;3.10;;;;;;;;;;6264965;27;20041;-66
2023/10/08 09:24:40;;;;;;;5.50;2.17;;;;;;;;;;6270861;27;20056;-64
2023/10/08 09:27:46;;;;;;;8.57;3.30;;;;;;;;;;6249262;27;20057;-64
2023/10/08 09:30:48;;;;;;;5.72;2.60;;;;;;;;;;6253299;27;20049;-64
2023/10/08 09:33:54;;;;;;;8.35;3.05;;;;;;;;;;6266056;27;20056;-65
2023/10/08 09:36:59;;;;;;;6.78;3.30;;;;;;;;;;6254805;27;20049;-64
2023/10/08 09:40:07;;;;;;;9.15;2.75;;;;;;;;;;6293267;27;20127;-65
2023/10/08 09:43:12;;;;;;;7.47;2.35;;;;;;;;;;6254429;27;20113;-65
2023/10/08 09:46:20;;;;;;;8.07;2.95;;;;;;;;;;6286970;27;20588;-64
2023/10/08 09:49:30;;;;;;;6.57;2.42;;;;;;;;;;6241226;27;20593;-70
2023/10/08 09:52:38;;;;;;;12.38;2.15;;;;;;;;;;6266483;27;20067;-65
2023/10/08 09:55:44;;;;;;;9.18;1.98;;;;;;;;;;6239564;27;20052;-64
2023/10/08 09:58:49;;;;;;;6.70;2.90;;;;;;;;;;6325859;27;20835;-64
2023/10/08 10:01:53;;;;;;;6.70;2.33;;;;;;;;;;6262148;27;20591;-66
2023/10/08 10:04:55;;;;;;;6.22;1.95;;;;;;;;;;6256308;27;20060;-65
2023/10/08 10:07:58;;;;;;;12.32;3.22;;;;;;;;;;6287332;27;20680;-64
2023/10/08 10:11:00;;;;;;;5.47;2.20;;;;;;;;;;6253051;27;20048;-64
2023/10/08 10:14:06;;;;;;;6.35;2.10;;;;;;;;;;6245763;27;20055;-66
2023/10/08 10:17:15;;;;;;;6.82;2.47;;;;;;;;;;6254800;27;20053;-65
2023/10/08 10:20:34;;;;;;;5.15;2.15;;;;;;;;;;6251774;27;20064;-65
2023/10/08 10:23:46;;;;;;;5.93;2.40;;;;;;;;;;6241422;27;20132;-65
2023/10/08 10:26:50;;;;;;;4.80;2.15;;;;;;;;;;6253285;27;20060;-65
2023/10/08 10:30:03;;;;;;;11.10;2.15;;;;;;;;;;6291468;27;20507;-64
2023/10/08 10:33:05;;;;;;;5.93;2.30;;;;;;;;;;6260060;27;20537;-65
2023/10/08 10:36:08;;;;;;;6.35;1.55;;;;;;;;;;6285519;27;20110;-65
2023/10/08 10:39:17;;;;;;;6.57;2.42;;;;;;;;;;6272462;27;20121;-66
2023/10/08 10:42:22;;;;;;;6.05;2.25;;;;;;;;;;6277896;27;20043;-65
2023/10/08 10:45:39;;;;;;;8.02;2.38;;;;;;;;;;6310378;27;20050;-65
2023/10/08 10:48:48;;;;;;;;;;;;;;;;;;6243297;27;20037;-65
2023/10/08 10:51:57;;;;;;;5.75;2.30;;;;;;;;;;6268477;27;19924;-65
2023/10/08 10:55:20;;;;;;;3.97;2.05;;;;;;;;;;6249720;27;20044;-65
2023/10/08 10:58:24;;;;;;;8.65;3.53;;;;;;;;;;6279966;27;20079;-65
2023/10/08 11:01:29;;;;;;;6.07;2.10;;;;;;;;;;6260393;27;20049;-65
2023/10/08 11:04:32;;;;;;;5.90;1.80;;;;;;;;;;6261340;27;20081;-65
2023/10/08 11:07:34;;;;;;;8.02;2.90;;;;;;;;;;6264614;27;20632;-65
2023/10/08 11:10:46;;;;;;;5.50;1.70;;;;;;;;;;6290282;27;20051;-65
2023/10/08 11:13:54;;;;;;;5.60;2.45;;;;;;;;;;6265349;27;20126;-65
2023/10/08 11:16:56;;;;;;;9.18;2.50;;;;;;;;;;6255838;27;20044;-66
2023/10/08 11:19:58;;;;;;;6.65;2.20;;;;;;;;;;6267459;27;20523;-65
2023/10/08 11:23:17;;;;;;;6.85;2.63;;;;;;;;;;6269649;27;20051;-65
2023/10/08 11:26:31;;;;;;;6.50;2.30;;;;;;;;;;6271569;27;20041;-66
2023/10/08 11:29:38;;;;;;;6.32;1.98;;;;;;;;;;6259376;27;20069;-65
2023/10/08 11:32:42;;;;;;;4.85;1.52;;;;;;;;;;6278806;27;20122;-67
2023/10/08 11:36:18;;;;;;;10.00;2.08;;;;;;;;;;6264940;27;20048;-65
2023/10/08 11:39:22;;;;;;;8.63;2.47;;;;;;;;;;6259882;27;20041;-64
2023/10/08 11:45:38;;;;;;;12.65;3.25;;;;;;;;;;6258744;27;20077;-64
2023/10/08 11:48:46;;;;;;;8.00;1.95;;;;;;;;;;6258374;27;20045;-65
2023/10/08 11:51:48;;;;;;;10.00;2.40;;;;;;;;;;6288592;27;20125;-65
2023/10/08 11:54:52;;;;;;;10.30;2.55;;;;;;;;;;6255957;27;20049;-68
2023/10/08 11:57:56;;;;;;;5.38;2.08;;;;;;;;;;6272274;27;20128;-65
2023/10/08 12:01:03;;;;;;;7.00;2.05;;;;;;;;;;6284889;27;20053;-64
2023/10/08 12:04:12;;;;;;;6.30;2.17;;;;;;;;;;6253160;27;20045;-64
2023/10/08 12:07:17;;;;;;;8.27;2.60;;;;;;;;;;6324604;27;20107;-64
2023/10/08 12:10:22;;;;;;;7.03;2.03;;;;;;;;;;6265523;27;20049;-64
2023/10/08 12:13:28;;;;;;;11.48;2.60;;;;;;;;;;6258716;27;20111;-64
2023/10/08 12:16:35;;;;;;;12.23;2.78;;;;;;;;;;6261028;27;20416;-67
2023/10/08 12:19:40;;;;;;;9.95;2.50;;;;;;;;;;6293341;27;20038;-64
2023/10/08 12:22:43;;;;;;;11.07;2.35;;;;;;;;;;6286289;27;20045;-64
2023/10/08 12:25:51;;;;;;;6.90;2.28;;;;;;;;;;6263307;27;20069;-64
2023/10/08 12:28:55;;;;;;;11.25;4.20;;;;;;;;;;6248907;27;20045;-64
2023/10/08 12:31:59;;;;;;;10.23;2.53;;;;;;;;;;6252615;27;20115;-64
2023/10/08 12:35:01;;;;;;;7.22;2.25;;;;;;;;;;6291353;27;20050;-64
2023/10/08 12:38:05;;;;;;;10.48;2.40;;;;;;;;;;6259189;27;20048;-64
2023/10/08 12:41:11;;;;;;;7.60;2.92;;;;;;;;;;6288928;27;20106;-65
2023/10/08 12:44:15;;;;;;;10.38;2.72;;;;;;;;;;6275022;27;20055;-64
2023/10/08 12:47:18;;;;;;;9.95;3.30;;;;;;;;;;6248343;27;20081;-65
2023/10/08 12:50:29;;;;;;;9.80;2.13;;;;;;;;;;6286718;27;20595;-65
2023/10/08 12:53:36;;;;;;;15.65;4.88;;;;;;;;;;6292554;27;20061;-64
2023/10/08 12:56:44;;;;;;;17.33;3.63;;;;;;;;;;6258912;27;20049;-64
2023/10/08 12:59:51;;;;;;;11.90;2.30;;;;;;;;;;6279858;27;20838;-64
2023/10/08 13:02:54;;;;;;;8.82;2.35;;;;;;;;;;6260869;27;20463;-64
2023/10/08 13:06:03;;;;;;;11.15;2.90;;;;;;;;;;6269238;27;20207;-64
2023/10/08 13:09:12;;;;;;;8.88;2.78;;;;;;;;;;6282743;27;20069;-65
2023/10/08 13:12:15;;;;;;;6.90;2.55;;;;;;;;;;6257455;27;20132;-64
2023/10/08 13:15:17;;;;;;;13.15;2.47;;;;;;;;;;6271268;27;20056;-63
2023/10/08 13:18:19;;;;;;;7.82;2.45;;;;;;;;;;6257831;27;20048;-63
2023/10/08 13:21:24;;;;;;;10.73;2.00;;;;;;;;;;6279961;27;20109;-64
2023/10/08 13:24:28;;;;;;;7.30;2.22;;;;;;;;;;6280741;27;20045;-62
2023/10/08 13:27:30;;;;;;;7.18;2.08;;;;;;;;;;6255791;27;20087;-64
2023/10/08 13:30:32;;;;;;;5.68;1.95;;;;;;;;;;6258255;27;20045;-64
2023/10/08 13:33:48;;;;;;;13.63;4.90;;;;;;;;;;6287461;27;20060;-64
2023/10/08 13:36:51;;;;;;;13.15;2.05;;;;;;;;;;6285370;27;20045;-64
2023/10/08 13:39:53;;;;;;;7.93;2.03;;;;;;;;;;6283856;27;20105;-63
2023/10/08 13:42:55;;;;;;;6.35;2.30;;;;;;;;;;6246190;27;20073;-63
2023/10/08 13:45:57;;;;;;;11.57;2.55;;;;;;;;;;6256551;27;20045;-64
2023/10/08 13:49:01;;;;;;;7.93;1.67;;;;;;;;;;6264481;27;20059;-63
2023/10/08 13:52:03;;;;;;;6.65;1.63;;;;;;;;;;6271837;27;20050;-64
2023/10/08 13:55:07;;;;;;;10.23;2.13;;;;;;;;;;6289361;27;20049;-64
2023/10/08 13:58:09;;;;;;;8.05;2.28;;;;;;;;;;6248737;27;20037;-63
2023/10/08 14:01:21;;;;;;;7.65;3.28;;;;;;;;;;6252793;27;20045;-63
2023/10/08 14:04:30;;;;;;;4.78;1.60;;;;;;;;;;6277393;27;20164;-63
2023/10/08 14:07:35;;;;;;;8.80;1.98;;;;;;;;;;6261139;27;20053;-63
2023/10/08 14:10:37;;;;;;;11.25;2.33;;;;;;;;;;6267919;27;20056;-64
2023/10/08 14:13:41;;;;;;;11.27;2.20;;;;;;;;;;6260460;27;20103;-65
2023/10/08 14:16:46;;;;;;;9.98;1.65;;;;;;;;;;6289091;27;20771;-66
2023/10/08 14:19:51;;;;;;;6.10;2.10;;;;;;;;;;6255223;27;20080;-67
2023/10/08 14:22:57;;;;;;;5.82;2.30;;;;;;;;;;6300234;27;20049;-71
2023/10/08 14:26:03;;;;;;;7.47;3.55;;;;;;;;;;6253394;27;20076;-71
2023/10/08 14:29:15;;;;;;;6.50;1.65;;;;;;;;;;6259830;27;20059;-65
2023/10/08 14:32:17;;;;;;;7.93;1.80;;;;;;;;;;6270315;27;20117;-71
2023/10/08 14:45:27;;;;;;;8.15;2.40;;;;;;;;;;6250294;27;20060;-70
2023/10/08 14:48:29;;;;;;;14.13;3.05;;;;;;;;;;6251024;28;20053;-70
2023/10/08 14:51:31;;;;;;;10.02;2.00;;;;;;;;;;6254896;27;20439;-70
2023/10/08 14:54:33;;;;;;;8.32;2.25;;;;;;;;;;6260788;27;20057;-67
2023/10/08 14:57:35;;;;;;;10.00;2.05;;;;;;;;;;6245243;27;20143;-67
2023/10/08 15:00:38;;;;;;;7.68;2.38;;;;;;;;;;6249050;28;20055;-68
2023/10/08 15:03:41;;;;;;;10.20;2.03;;;;;;;;;;6251803;27;20105;-67
2023/10/08 15:06:43;;;;;;;9.07;1.77;;;;;;;;;;6250139;27;20222;-65
2023/10/08 15:09:45;;;;;;;15.07;2.67;;;;;;;;;;6247109;27;20480;-64
2023/10/08 15:12:47;;;;;;;12.00;1.95;;;;;;;;;;6253536;27;20078;-66
2023/10/08 15:15:54;;;;;;;9.30;1.95;;;;;;;;;;6249016;27;20045;-67
2023/10/08 15:18:56;;;;;;;11.07;2.22;;;;;;;;;;6249299;27;20153;-67
2023/10/08 15:21:59;;;;;;;14.57;3.13;;;;;;;;;;6255525;27;20451;-66
2023/10/08 15:25:02;;;;;;;8.20;1.60;;;;;;;;;;6271973;27;20053;-67
2023/10/08 15:28:04;;;;;;;11.15;2.60;;;;;;;;;;6263953;27;20752;-66
2023/10/08 15:31:07;;;;;;;6.60;1.90;;;;;;;;;;6255127;27;20049;-68
2023/10/08 15:34:12;;;;;;;7.25;2.42;;;;;;;;;;6283798;27;20194;-66
2023/10/08 15:37:33;;;;;;;8.98;2.97;;;;;;;;;;6303313;27;20053;-66
2023/10/08 15:40:35;;;;;;;6.47;1.45;;;;;;;;;;6272119;27;20053;-66
2023/10/08 15:43:37;;;;;;;7.55;1.90;;;;;;;;;;6257655;27;20152;-66
2023/10/08 15:46:39;;;;;;;5.28;1.92;;;;;;;;;;6271854;27;20118;-66
2023/10/08 15:49:41;;;;;;;9.43;2.40;;;;;;;;;;6269364;27;20545;-66
2023/10/08 15:52:44;;;;;;;10.15;2.35;;;;;;;;;;6282758;27;20045;-66
2023/10/08 15:55:47;;;;;;;10.30;2.75;;;;;;;;;;6259076;27;20055;-67
2023/10/08 15:58:49;;;;;;;11.25;2.45;;;;;;;;;;6264347;27;20043;-65
2023/10/08 16:01:51;;;;;;;7.97;2.38;;;;;;;;;;6305538;27;20041;-66
2023/10/08 16:04:54;;;;;;;6.07;2.70;;;;;;;;;;6269747;27;20064;-65
2023/10/08 16:07:58;;;;;;;10.68;2.10;;;;;;;;;;6265653;27;20047;-65
2023/10/08 16:11:00;;;;;;;7.72;2.05;;;;;;;;;;6273170;27;20046;-66
2023/10/08 16:14:02;;;;;;;14.57;3.15;;;;;;;;;;6282716;27;20044;-66
2023/10/08 16:17:07;;;;;;;8.52;2.65;;;;;;;;;;6261702;27;20455;-64
2023/10/08 16:20:17;;;;;;;9.40;2.67;;;;;;;;;;6255647;27;20048;-72
2023/10/08 16:23:22;;;;;;;12.57;2.90;;;;;;;;;;6265467;27;20835;-69
2023/10/08 16:26:25;;;;;;;11.65;4.03;;;;;;;;;;6257030;27;20034;-69
2023/10/08 16:29:28;;;;;;;9.25;3.97;;;;;;;;;;6262354;27;20041;-69
2023/10/08 16:32:30;;;;;;;8.20;3.70;;;;;;;;;;6262843;27;20429;-63
2023/10/08 16:35:33;;;;;;;10.30;2.88;;;;;;;;;;6291435;27;20048;-63
2023/10/08 16:38:36;;;;;;;8.13;2.78;;;;;;;;;;6242424;27;20044;-63
2023/10/08 16:41:38;;;;;;;8.13;2.67;;;;;;;;;;6257793;27;20230;-63
2023/10/08 16:44:40;;;;;;;10.63;3.05;;;;;;;;;;6283710;27;20048;-66
2023/10/08 16:47:44;;;;;;;7.68;2.50;;;;;;;;;;6265978;27;20049;-73
2023/10/08 16:50:47;;;;;;;12.57;3.97;;;;;;;;;;6253544;28;20466;-73
2023/10/08 16:53:49;;;;;;;8.13;2.50;;;;;;;;;;6234178;27;20049;-73
2023/10/08 16:56:52;;;;;;;10.27;3.33;;;;;;;;;;6268918;27;20045;-73
2023/10/08 16:59:54;;;;;;;11.18;3.08;;;;;;;;;;6276383;27;20586;-73
2023/10/08 17:02:57;;;;;;;5.38;2.67;;;;;;;;;;6287418;27;20055;-73
2023/10/08 17:06:07;;;;;;;9.05;2.25;;;;;;;;;;6263282;27;20045;-73
2023/10/08 17:09:16;;;;;;;7.32;1.67;;;;;;;;;;6298936;27;20038;-70
2023/10/08 17:12:19;;;;;;;13.15;2.80;;;;;;;;;;6281711;27;20052;-69
2023/10/08 17:15:21;;;;;;;8.88;3.28;;;;;;;;;;6260409;27;20049;-69
2023/10/08 17:18:25;;;;;;;9.48;5.00;;;;;;;;;;6266235;27;20053;-69
2023/10/08 17:21:28;;;;;;;8.35;3.78;;;;;;;;;;6269609;27;20039;-68
2023/10/08 17:24:31;;;;;;;8.27;2.03;;;;;;;;;;6254220;27;20057;-69
2023/10/08 17:27:34;;;;;;;8.32;3.72;;;;;;;;;;6280045;27;20045;-63
2023/10/08 17:30:38;;;;;;;10.27;3.70;;;;;;;;;;6260772;27;20596;-64
2023/10/08 17:33:41;;;;;;;8.68;3.05;;;;;;;;;;6312949;27;20045;-63
2023/10/08 17:36:44;;;;;;;10.45;2.45;;;;;;;;;;6258443;27;20056;-62
2023/10/08 17:39:47;;;;;;;8.07;2.47;;;;;;;;;;6264042;27;20151;-62
2023/10/08 17:42:49;;;;;;;15.80;3.13;;;;;;;;;;6258522;27;20470;-63
2023/10/08 17:45:52;;;;;;;13.18;3.47;;;;;;;;;;6254896;27;20053;-62
2023/10/08 17:48:54;;;;;;;5.97;2.75;;;;;;;;;;6268530;27;20061;-62
2023/10/08 17:51:56;;;;;;;8.15;3.13;;;;;;;;;;6253804;27;20049;-62
2023/10/08 17:54:58;;;;;;;10.70;3.13;;;;;;;;;;6270192;27;20048;-62
2023/10/08 17:58:01;;;;;;;16.90;4.05;;;;;;;;;;6269391;27;20056;-65
2023/10/08 18:01:16;;;;;;;11.65;3.17;;;;;;;;;;6255916;27;20045;-62
2023/10/08 18:04:23;;;;;;;11.85;3.47;;;;;;;;;;6262083;27;20059;-68
2023/10/08 18:07:26;;;;;;;13.65;3.60;;;;;;;;;;6281929;27;20064;-71
2023/10/08 18:10:30;;;;;;;17.13;4.20;;;;;;;;;;6264359;27;20109;-68
2023/10/08 18:13:40;;;;;;;20.88;3.47;;;;;;;;;;6263269;27;20473;-68
2023/10/08 18:16:43;;;;;;;10.13;3.30;;;;;;;;;;6255519;27;20048;-70
2023/10/08 18:19:45;;;;;;;12.15;3.20;;;;;;;;;;6246603;27;20053;-66
2023/10/08 18:22:50;;;;;;;14.32;4.55;;;;;;;;;;6266258;27;20051;-67
2023/10/08 18:25:53;;;;;;;8.48;3.30;;;;;;;;;;6291033;27;20041;-70
2023/10/08 18:28:55;;;;;;;14.52;4.57;;;;;;;;;;6268264;27;20125;-71
2023/10/08 18:32:00;;;;;;;15.77;4.03;;;;;;;;;;6265992;27;20050;-71
2023/10/08 18:35:02;;;;;;;15.80;4.07;;;;;;;;;;6269264;27;20056;-70
2023/10/08 18:38:04;;;;;;;9.55;2.90;;;;;;;;;;6253899;27;20049;-70
2023/10/08 18:41:07;;;;;;;11.63;3.92;;;;;;;;;;6317836;27;20830;-70
2023/10/08 18:44:10;;;;;;;10.52;3.50;;;;;;;;;;6251406;27;20840;-70
2023/10/08 18:47:13;;;;;;;12.90;3.80;;;;;;;;;;6255535;27;20102;-71
2023/10/08 18:50:17;;;;;;;10.77;3.90;;;;;;;;;;6261176;27;20085;-70
2023/10/08 18:53:19;;;;;;;14.00;3.75;;;;;;;;;;6257268;27;20494;-67
2023/10/08 18:56:21;;;;;;;11.73;3.42;;;;;;;;;;6264827;27;20041;-67
2023/10/08 18:59:24;;;;;;;14.85;3.03;;;;;;;;;;6268403;27;20049;-63
2023/10/08 19:02:26;;;;;;;12.13;3.28;;;;;;;;;;6335875;27;20508;-63
2023/10/08 19:05:29;;;;;;;10.45;3.65;;;;;;;;;;6307349;27;20058;-61
2023/10/08 19:08:37;;;;;;;11.95;4.60;;;;;;;;;;6275191;27;20051;-61
2023/10/08 19:11:40;;;;;;;15.77;4.05;;;;;;;;;;6260811;27;20068;-62
2023/10/08 19:14:43;;;;;;;19.23;4.25;;;;;;;;;;6274468;27;20067;-63
2023/10/08 19:17:45;;;;;;;14.82;4.03;;;;;;;;;;6268865;27;20086;-64
2023/10/08 19:20:49;;;;;;;14.55;3.75;;;;;;;;;;6263101;27;20045;-63
2023/10/08 19:23:51;;;;;;;15.25;5.15;;;;;;;;;;6251957;27;20073;-64
2023/10/08 19:26:55;;;;;;;10.48;3.78;;;;;;;;;;6283819;27;20052;-69
2023/10/08 19:30:05;;;;;;;;;;;;;;;;;;6257528;27;20049;-63
2023/10/08 19:33:10;;;;;;;15.13;3.30;;;;;;;;;;6262217;27;19924;-72